createdAt,value
2022-08-17T00:00:43.800Z,58.03
2022-08-17T00:03:10.748Z,58.12
2022-08-17T00:05:44.644Z,58.23
2022-08-17T00:08:16.240Z,58.24
2022-08-17T00:10:46.639Z,58.03
2022-08-17T00:13:32.629Z,58.19
2022-08-17T00:16:08.714Z,58.28
2022-08-17T00:19:01.269Z,58.26
2022-08-17T00:22:28.699Z,58.00
2022-08-17T00:24:20.307Z,58.02
2022-08-17T00:26:48.884Z,58.23
2022-08-17T00:29:20.086Z,58.21
2022-08-17T00:31:50.170Z,58.32
2022-08-17T00:34:19.355Z,58.26
2022-08-17T00:36:47.826Z,58.35
2022-08-17T00:39:16.897Z,58.43
2022-08-17T00:41:45.898Z,58.34
2022-08-17T00:44:15.925Z,58.42
2022-08-17T00:46:45.360Z,58.51
2022-08-17T00:49:16.074Z,58.57
2022-08-17T00:51:59.939Z,58.57
2022-08-17T00:54:41.814Z,58.76
2022-08-17T00:57:23.849Z,58.82
2022-08-17T01:00:03.080Z,58.83
2022-08-17T01:02:50.872Z,58.96
2022-08-17T01:05:25.810Z,59.08
2022-08-17T01:07:55.665Z,59.24
2022-08-17T01:10:58.385Z,59.26
2022-08-17T01:13:26.624Z,59.46
2022-08-17T01:16:06.945Z,59.43
2022-08-17T01:18:36.468Z,59.51
2022-08-17T01:21:22.788Z,59.54
2022-08-17T01:23:51.805Z,59.58
2022-08-17T01:26:20.679Z,59.59
2022-08-17T01:28:54.242Z,59.55
2022-08-17T01:31:29.509Z,59.65
2022-08-17T01:34:05.297Z,59.70
2022-08-17T01:36:34.584Z,59.86
2022-08-17T01:39:05.077Z,59.88
2022-08-17T01:41:35.142Z,59.85
2022-08-17T01:44:07.074Z,59.90
2022-08-17T01:46:37.403Z,59.96
2022-08-17T01:49:10.892Z,60.05
2022-08-17T01:51:39.980Z,60.10
2022-08-17T01:54:13.332Z,60.14
2022-08-17T01:56:47.259Z,60.09
2022-08-17T01:59:19.905Z,60.16
2022-08-17T02:01:49.369Z,60.18
2022-08-17T02:04:18.046Z,60.27
2022-08-17T02:06:54.225Z,60.26
2022-08-17T02:09:29.895Z,60.25
2022-08-17T02:12:37.668Z,60.26
2022-08-17T02:14:50.684Z,60.57
2022-08-17T02:17:20.320Z,60.65
2022-08-17T02:19:49.190Z,60.84
2022-08-17T02:22:18.623Z,60.84
2022-08-17T02:24:59.673Z,60.87
2022-08-17T02:27:31.174Z,61.10
2022-08-17T02:30:03.074Z,61.16
2022-08-17T02:32:31.561Z,61.24
2022-08-17T02:35:01.332Z,61.24
2022-08-17T02:37:31.115Z,61.32
2022-08-17T02:39:59.931Z,61.38
2022-08-17T02:42:53.971Z,61.44
2022-08-17T02:45:24.667Z,61.57
2022-08-17T02:47:53.434Z,61.61
2022-08-17T02:50:25.032Z,61.68
2022-08-17T02:52:57.276Z,61.66
2022-08-17T02:55:37.011Z,61.65
2022-08-17T02:58:06.390Z,61.63
2022-08-17T03:00:41.737Z,61.65
2022-08-17T03:03:13.854Z,61.62
2022-08-17T03:05:42.896Z,61.75
2022-08-17T03:08:13.193Z,61.74
2022-08-17T03:10:43.917Z,61.90
2022-08-17T03:13:15.550Z,61.74
2022-08-17T03:15:45.997Z,61.85
2022-08-17T03:18:24.575Z,61.99
2022-08-17T03:20:58.159Z,62.06
2022-08-17T03:23:28.605Z,62.14
2022-08-17T03:25:59.726Z,62.03
2022-08-17T03:28:29.074Z,62.17
2022-08-17T03:30:57.703Z,62.19
2022-08-17T03:33:26.684Z,62.36
2022-08-17T03:35:55.570Z,62.35
2022-08-17T03:38:25.327Z,62.38
2022-08-17T03:40:59.513Z,62.44
2022-08-17T03:43:31.972Z,62.53
2022-08-17T03:46:33.877Z,62.53
2022-08-17T03:49:24.674Z,62.54
2022-08-17T03:52:15.932Z,62.57
2022-08-17T03:55:04.692Z,62.73
2022-08-17T03:57:39.226Z,62.74
2022-08-17T04:00:08.428Z,62.83
2022-08-17T04:02:43.226Z,62.84
2022-08-17T04:05:11.925Z,62.86
2022-08-17T04:07:41.699Z,62.82
2022-08-17T04:10:10.508Z,62.81
2022-08-17T04:12:49.062Z,62.83
2022-08-17T04:15:19.147Z,62.82
2022-08-17T04:17:48.636Z,62.93
2022-08-17T04:20:19.380Z,62.90
2022-08-17T04:23:10.477Z,62.86
2022-08-17T04:25:43.392Z,62.95
2022-08-17T04:28:15.881Z,62.95
2022-08-17T04:30:46.948Z,62.98
2022-08-17T04:33:24.542Z,62.98
2022-08-17T04:35:56.535Z,63.13
2022-08-17T04:38:29.556Z,63.07
2022-08-17T04:41:18.936Z,63.06
2022-08-17T04:43:49.620Z,62.95
2022-08-17T04:46:22.865Z,62.88
2022-08-17T04:48:56.563Z,62.94
2022-08-17T04:51:35.574Z,62.83
2022-08-17T04:54:11.456Z,63.02
2022-08-17T04:56:41.358Z,62.99
2022-08-17T04:59:18.737Z,63.09
2022-08-17T05:01:53.126Z,63.14
2022-08-17T05:04:34.616Z,63.15
2022-08-17T05:07:04.853Z,63.20
2022-08-17T05:09:33.753Z,63.14
2022-08-17T05:12:03.685Z,62.98
2022-08-17T05:14:33.201Z,63.06
2022-08-17T05:17:07.018Z,62.89
2022-08-17T05:19:36.080Z,62.63
2022-08-17T05:22:06.891Z,61.84
2022-08-17T05:24:42.618Z,60.91
2022-08-17T05:27:18.899Z,60.97
2022-08-17T05:29:47.903Z,61.07
2022-08-17T05:32:38.035Z,60.92
2022-08-17T05:35:09.276Z,60.92
2022-08-17T05:37:39.902Z,61.18
2022-08-17T05:40:08.862Z,61.25
2022-08-17T05:42:37.822Z,61.22
2022-08-17T05:45:07.318Z,60.80
2022-08-17T05:47:38.223Z,60.63
2022-08-17T05:50:10.046Z,60.80
2022-08-17T05:52:59.500Z,60.56
2022-08-17T05:55:49.781Z,60.39
2022-08-17T05:58:45.855Z,59.80
2022-08-17T06:01:56.818Z,59.68
2022-08-17T06:05:08.048Z,59.60
2022-08-17T06:07:49.746Z,58.96
2022-08-17T06:10:40.385Z,58.79
2022-08-17T06:13:30.023Z,58.20
2022-08-17T06:16:33.554Z,57.82
2022-08-17T06:19:21.487Z,57.51
2022-08-17T06:21:59.212Z,56.95
2022-08-17T06:24:52.123Z,56.40
2022-08-17T06:27:33.116Z,56.37
2022-08-17T06:30:19.399Z,55.54
2022-08-17T06:32:51.398Z,54.49
2022-08-17T06:35:33.589Z,54.24
2022-08-17T06:38:36.922Z,54.06
2022-08-17T06:41:28.732Z,52.71
2022-08-17T06:44:10.337Z,50.57
2022-08-17T06:46:49.156Z,51.06
2022-08-17T06:49:30.743Z,50.88
2022-08-17T06:52:45.712Z,49.97
2022-08-17T06:55:38.240Z,48.88
2022-08-17T06:58:21.872Z,48.90
2022-08-17T07:00:58.722Z,49.78
2022-08-17T07:03:46.609Z,48.90
2022-08-17T07:06:18.749Z,48.24
2022-08-17T07:09:08.289Z,48.11
2022-08-17T07:11:52.210Z,47.73
2022-08-17T07:14:30.190Z,47.17
2022-08-17T07:17:02.303Z,46.79
2022-08-17T07:19:38.762Z,46.16
2022-08-17T07:22:53.592Z,45.03
2022-08-17T07:25:22.140Z,43.96
2022-08-17T07:28:01.203Z,43.87
2022-08-17T07:30:42.967Z,43.81
2022-08-17T07:33:20.587Z,42.99
2022-08-17T07:35:50.467Z,42.32
2022-08-17T07:38:28.744Z,42.49
2022-08-17T07:41:06.909Z,41.63
2022-08-17T07:43:41.588Z,41.00
2022-08-17T07:46:43.418Z,40.73
2022-08-17T07:49:12.894Z,40.10
2022-08-17T07:51:46.181Z,39.86
2022-08-17T07:54:23.271Z,39.19
2022-08-17T07:56:56.540Z,38.67
2022-08-17T07:59:36.479Z,38.40
2022-08-17T08:02:17.361Z,39.15
2022-08-17T08:05:08.687Z,38.81
2022-08-17T08:07:51.090Z,38.05
2022-08-17T08:10:38.742Z,37.61
2022-08-17T08:13:23.125Z,36.72
2022-08-17T08:15:54.979Z,36.84
2022-08-17T08:18:56.067Z,37.15
2022-08-17T08:21:56.748Z,36.42
2022-08-17T08:24:37.164Z,35.96
2022-08-17T08:27:31.227Z,35.89
2022-08-17T08:30:08.980Z,35.34
2022-08-17T08:32:51.881Z,35.87
2022-08-17T08:35:48.690Z,35.24
2022-08-17T08:38:35.819Z,34.71
2022-08-17T08:41:32.538Z,34.29
2022-08-17T08:44:13.256Z,34.50
2022-08-17T08:47:00.647Z,34.59
2022-08-17T08:50:08.396Z,34.55
2022-08-17T08:53:33.435Z,34.33
2022-08-17T08:56:28.280Z,34.62
2022-08-17T08:59:08.356Z,34.47
2022-08-17T09:02:04.939Z,34.32
2022-08-17T09:05:13.003Z,34.42
2022-08-17T09:07:47.714Z,34.19
2022-08-17T09:10:31.330Z,34.19
2022-08-17T09:13:12.233Z,34.11
2022-08-17T09:15:45.578Z,34.21
2022-08-17T09:19:03.386Z,34.25
2022-08-17T09:21:19.776Z,33.91
2022-08-17T09:24:33.031Z,34.34
2022-08-17T09:27:12.047Z,34.07
2022-08-17T09:29:59.898Z,34.22
2022-08-17T09:32:34.949Z,34.34
2022-08-17T09:35:21.175Z,34.40
2022-08-17T09:38:06.392Z,34.14
2022-08-17T09:40:38.299Z,34.17
2022-08-17T09:43:44.709Z,34.20
2022-08-17T09:46:24.654Z,33.79
2022-08-17T09:49:16.669Z,33.35
2022-08-17T09:52:14.753Z,33.31
2022-08-17T09:54:47.919Z,33.37
2022-08-17T09:57:34.816Z,33.74
2022-08-17T10:00:16.721Z,33.43
2022-08-17T10:03:16.650Z,32.97
2022-08-17T10:06:13.749Z,32.76
2022-08-17T10:09:09.190Z,32.79
2022-08-17T10:12:20.718Z,32.34
2022-08-17T10:14:53.451Z,32.46
2022-08-17T10:17:43.969Z,32.65
2022-08-17T10:20:34.255Z,32.88
2022-08-17T10:23:48.715Z,32.97
2022-08-17T10:26:25.299Z,32.40
2022-08-17T10:28:59.071Z,32.53
2022-08-17T10:31:46.456Z,32.51
2022-08-17T10:34:38.716Z,32.16
2022-08-17T10:37:10.581Z,32.07
2022-08-17T10:39:52.573Z,32.02
2022-08-17T10:42:32.247Z,32.47
2022-08-17T10:45:26.638Z,32.60
2022-08-17T10:48:26.275Z,32.31
2022-08-17T10:50:59.525Z,32.55
2022-08-17T10:53:40.975Z,32.47
2022-08-17T10:56:12.954Z,32.50
2022-08-17T10:58:57.626Z,32.63
2022-08-17T11:01:43.935Z,32.57
2022-08-17T11:04:41.333Z,32.49
2022-08-17T11:07:42.204Z,32.52
2022-08-17T11:10:51.976Z,32.45
2022-08-17T11:13:50.777Z,32.46
2022-08-17T11:16:28.464Z,32.56
2022-08-17T11:19:19.313Z,32.77
2022-08-17T11:21:56.950Z,32.57
2022-08-17T11:24:43.386Z,32.93
2022-08-17T11:27:33.473Z,33.12
2022-08-17T11:30:33.785Z,32.93
2022-08-17T11:33:36.838Z,33.11
2022-08-17T11:36:22.565Z,33.03
2022-08-17T11:39:02.624Z,33.22
2022-08-17T11:42:18.598Z,33.01
2022-08-17T11:45:32.123Z,33.08
2022-08-17T11:48:43.237Z,33.18
2022-08-17T11:51:36.572Z,33.33
2022-08-17T11:54:32.373Z,33.40
2022-08-17T11:57:00.031Z,33.39
2022-08-17T11:59:37.455Z,33.23
2022-08-17T12:02:35.414Z,33.45
2022-08-17T12:05:12.515Z,33.02
2022-08-17T12:07:52.335Z,33.22
2022-08-17T12:10:34.699Z,33.35
2022-08-17T12:13:16.888Z,33.19
2022-08-17T12:15:50.170Z,33.22
2022-08-17T12:18:29.255Z,33.39
2022-08-17T12:21:15.859Z,33.53
2022-08-17T12:24:15.459Z,33.45
2022-08-17T12:26:53.224Z,33.47
2022-08-17T12:29:38.931Z,33.77
2022-08-17T12:32:17.879Z,33.52
2022-08-17T12:34:49.448Z,33.63
2022-08-17T12:37:26.221Z,33.55
2022-08-17T12:40:06.473Z,33.67
2022-08-17T12:42:39.627Z,33.75
2022-08-17T12:45:23.766Z,33.80
2022-08-17T12:48:09.770Z,33.74
2022-08-17T12:50:46.515Z,33.76
2022-08-17T12:53:25.582Z,33.69
2022-08-17T12:55:56.481Z,33.73
2022-08-17T12:58:48.547Z,33.88
2022-08-17T13:01:20.711Z,33.95
2022-08-17T13:04:29.579Z,33.92
2022-08-17T13:07:34.515Z,33.86
2022-08-17T13:10:04.528Z,33.89
2022-08-17T13:12:36.423Z,33.91
2022-08-17T13:15:05.741Z,33.76
2022-08-17T13:17:36.740Z,33.65
2022-08-17T13:20:15.349Z,33.69
2022-08-17T13:22:52.580Z,33.80
2022-08-17T13:25:24.174Z,33.79
2022-08-17T13:27:53.836Z,33.72
2022-08-17T13:30:28.943Z,33.70
2022-08-17T13:32:58.315Z,33.79
2022-08-17T13:35:48.296Z,33.87
2022-08-17T13:38:47.513Z,33.76
2022-08-17T13:41:35.328Z,33.89
2022-08-17T13:44:30.391Z,33.68
2022-08-17T13:47:00.688Z,33.56
2022-08-17T13:49:41.814Z,33.78
2022-08-17T13:52:41.485Z,33.84
2022-08-17T13:55:21.675Z,33.56
2022-08-17T13:58:06.617Z,33.82
2022-08-17T14:00:37.130Z,33.93
2022-08-17T14:03:06.653Z,33.73
2022-08-17T14:05:38.209Z,33.88
2022-08-17T14:08:07.453Z,33.51
2022-08-17T14:10:37.094Z,33.59
2022-08-17T14:13:07.333Z,33.64
2022-08-17T14:15:56.389Z,33.77
2022-08-17T14:18:54.301Z,33.67
2022-08-17T14:21:15.222Z,33.67
2022-08-17T14:23:52.686Z,34.02
2022-08-17T14:26:24.139Z,34.01
2022-08-17T14:28:56.473Z,34.11
2022-08-17T14:31:27.020Z,33.97
2022-08-17T14:33:56.008Z,34.00
2022-08-17T14:36:24.670Z,34.05
2022-08-17T14:38:54.353Z,34.04
2022-08-17T14:41:24.204Z,34.05
2022-08-17T14:43:53.849Z,33.91
2022-08-17T14:46:23.212Z,33.91
2022-08-17T14:48:57.330Z,34.02
2022-08-17T14:51:30.343Z,33.94
2022-08-17T14:53:59.209Z,33.97
2022-08-17T14:56:28.243Z,34.07
2022-08-17T14:59:04.403Z,34.28
2022-08-17T15:01:33.286Z,34.19
2022-08-17T15:04:02.019Z,34.45
2022-08-17T15:06:30.689Z,34.27
2022-08-17T15:08:59.433Z,34.48
2022-08-17T15:11:28.049Z,34.47
2022-08-17T15:13:57.124Z,34.39
2022-08-17T15:16:27.357Z,34.29
2022-08-17T15:18:55.932Z,34.37
2022-08-17T15:21:25.131Z,34.59
2022-08-17T15:23:53.930Z,34.40
2022-08-17T15:26:26.139Z,34.25
2022-08-17T15:28:56.757Z,34.40
2022-08-17T15:31:31.883Z,34.27
2022-08-17T15:34:01.885Z,34.33
2022-08-17T15:36:30.380Z,34.37
2022-08-17T15:38:59.276Z,34.36
2022-08-17T15:41:28.632Z,34.26
2022-08-17T15:43:57.271Z,34.24
2022-08-17T15:46:27.126Z,34.28
2022-08-17T15:49:00.475Z,34.53
2022-08-17T15:51:36.226Z,34.28
2022-08-17T15:54:19.149Z,34.57
2022-08-17T15:56:51.491Z,34.46
2022-08-17T15:59:20.662Z,34.29
2022-08-17T16:03:13.014Z,34.57
2022-08-17T16:04:43.927Z,34.41
2022-08-17T16:07:13.357Z,34.67
2022-08-17T16:09:42.327Z,34.46
2022-08-17T16:12:14.816Z,34.55
2022-08-17T16:14:44.219Z,34.46
2022-08-17T16:17:38.402Z,34.34
2022-08-17T16:20:02.953Z,34.40
2022-08-17T16:22:37.760Z,34.41
2022-08-17T16:25:20.680Z,34.53
2022-08-17T16:27:54.421Z,34.54
2022-08-17T16:30:25.655Z,34.53
2022-08-17T16:32:55.606Z,34.62
2022-08-17T16:35:27.431Z,34.48
2022-08-17T16:37:59.239Z,34.67
2022-08-17T16:40:31.332Z,34.65
2022-08-17T16:43:10.809Z,34.69
2022-08-17T16:45:41.180Z,35.07
2022-08-17T16:48:10.509Z,35.12
2022-08-17T16:50:39.315Z,35.20
2022-08-17T16:53:11.259Z,35.16
2022-08-17T16:55:40.103Z,35.20
2022-08-17T16:58:09.224Z,35.31
2022-08-17T17:00:39.397Z,35.22
2022-08-17T17:03:23.805Z,35.26
2022-08-17T17:06:37.043Z,35.43
2022-08-17T17:09:32.152Z,35.47
2022-08-17T17:12:58.156Z,35.61
2022-08-17T17:15:59.975Z,35.92
2022-08-17T17:19:12.452Z,36.05
2022-08-17T17:22:30.520Z,36.12
2022-08-17T17:25:49.688Z,36.29
2022-08-17T17:28:46.897Z,36.46
2022-08-17T17:31:47.265Z,36.44
2022-08-17T17:34:39.796Z,36.65
2022-08-17T17:37:35.523Z,36.75
2022-08-17T17:40:47.450Z,36.83
2022-08-17T17:43:42.032Z,37.14
2022-08-17T17:46:34.184Z,37.05
2022-08-17T17:49:02.808Z,37.44
2022-08-17T17:52:07.231Z,37.66
2022-08-17T17:54:51.351Z,37.68
2022-08-17T17:57:21.673Z,38.06
2022-08-17T18:00:05.575Z,38.02
2022-08-17T18:02:55.521Z,38.38
2022-08-17T18:05:44.395Z,38.50
2022-08-17T18:08:49.523Z,38.58
2022-08-17T18:11:37.684Z,38.94
2022-08-17T18:14:36.692Z,38.93
2022-08-17T18:17:06.862Z,39.02
2022-08-17T18:19:35.556Z,38.98
2022-08-17T18:22:14.005Z,39.06
2022-08-17T18:24:47.286Z,39.24
2022-08-17T18:27:31.537Z,39.48
2022-08-17T18:30:21.710Z,39.64
2022-08-17T18:32:51.003Z,40.09
2022-08-17T18:35:19.557Z,40.26
2022-08-17T18:37:49.936Z,40.33
2022-08-17T18:40:19.143Z,40.46
2022-08-17T18:43:06.257Z,40.41
2022-08-17T18:45:44.130Z,40.78
2022-08-17T18:48:21.971Z,40.95
2022-08-17T18:50:53.759Z,41.12
2022-08-17T18:53:33.187Z,41.12
2022-08-17T18:56:22.087Z,41.01
2022-08-17T18:59:10.845Z,41.29
2022-08-17T19:01:59.206Z,41.46
2022-08-17T19:04:34.789Z,41.51
2022-08-17T19:07:06.397Z,41.93
2022-08-17T19:09:40.782Z,42.31
2022-08-17T19:12:17.103Z,42.23
2022-08-17T19:14:45.739Z,42.53
2022-08-17T19:17:28.291Z,42.44
2022-08-17T19:20:09.597Z,42.70
2022-08-17T19:22:57.992Z,42.65
2022-08-17T19:25:33.088Z,42.79
2022-08-17T19:28:15.327Z,43.22
2022-08-17T19:30:56.990Z,43.32
2022-08-17T19:33:27.250Z,43.28
2022-08-17T19:36:05.225Z,43.56
2022-08-17T19:39:00.593Z,43.60
2022-08-17T19:41:45.124Z,43.61
2022-08-17T19:44:40.632Z,43.56
2022-08-17T19:47:43.073Z,43.88
2022-08-17T19:50:30.614Z,44.07
2022-08-17T19:53:20.521Z,44.28
2022-08-17T19:56:23.655Z,44.28
2022-08-17T19:59:14.289Z,44.25
2022-08-17T20:01:49.847Z,44.61
2022-08-17T20:04:31.820Z,44.77
2022-08-17T20:07:14.309Z,44.80
2022-08-17T20:10:07.005Z,44.99
2022-08-17T20:12:39.753Z,44.95
2022-08-17T20:15:26.171Z,45.06
2022-08-17T20:18:00.671Z,45.19
2022-08-17T20:20:35.302Z,45.22
2022-08-17T20:23:24.916Z,45.37
2022-08-17T20:26:09.978Z,45.47
2022-08-17T20:28:41.859Z,45.73
2022-08-17T20:31:47.975Z,45.80
2022-08-17T20:34:33.622Z,45.98
2022-08-17T20:37:26.427Z,46.08
2022-08-17T20:39:57.998Z,46.17
2022-08-17T20:42:28.162Z,46.24
2022-08-17T20:45:24.215Z,46.44
2022-08-17T20:48:30.476Z,46.41
2022-08-17T20:51:01.280Z,46.50
2022-08-17T20:53:49.668Z,46.65
2022-08-17T20:56:52.241Z,46.61
2022-08-17T20:59:26.052Z,46.79
2022-08-17T21:02:18.814Z,46.98
2022-08-17T21:04:50.980Z,47.06
2022-08-17T21:07:48.957Z,47.14
2022-08-17T21:10:38.120Z,47.17
2022-08-17T21:13:15.680Z,47.13
2022-08-17T21:15:50.550Z,47.27
2022-08-17T21:18:39.609Z,47.44
2022-08-17T21:21:37.993Z,47.39
2022-08-17T21:24:25.115Z,47.73
2022-08-17T21:27:26.627Z,47.73
2022-08-17T21:30:10.062Z,47.93
2022-08-17T21:32:43.635Z,47.80
2022-08-17T21:35:29.014Z,47.79
2022-08-17T21:38:04.692Z,47.88
2022-08-17T21:40:35.434Z,47.97
2022-08-17T21:43:23.800Z,48.16
2022-08-17T21:45:57.070Z,48.52
2022-08-17T21:48:29.765Z,48.67
2022-08-17T21:51:14.666Z,48.80
2022-08-17T21:53:43.094Z,49.08
2022-08-17T21:56:20.336Z,48.98
2022-08-17T21:58:56.362Z,49.25
2022-08-17T22:01:40.260Z,49.19
2022-08-17T22:04:11.725Z,49.30
2022-08-17T22:06:57.096Z,49.37
2022-08-17T22:09:43.809Z,49.59
2022-08-17T22:12:50.569Z,49.68
2022-08-17T22:15:20.882Z,50.06
2022-08-17T22:18:20.219Z,50.11
2022-08-17T22:20:53.093Z,50.10
2022-08-17T22:23:48.584Z,50.25
2022-08-17T22:26:18.966Z,50.34
2022-08-17T22:28:49.848Z,50.28
2022-08-17T22:31:24.998Z,50.30
2022-08-17T22:34:03.100Z,50.45
2022-08-17T22:36:37.060Z,50.52
2022-08-17T22:39:11.836Z,50.90
2022-08-17T22:41:54.281Z,51.11
2022-08-17T22:44:38.483Z,51.15
2022-08-17T22:47:14.269Z,51.04
2022-08-17T22:49:53.458Z,51.12
2022-08-17T22:52:29.185Z,51.05
2022-08-17T22:55:35.906Z,51.24
2022-08-17T22:58:32.887Z,51.39
2022-08-17T23:01:23.309Z,51.69
2022-08-17T23:03:59.238Z,51.57
2022-08-17T23:06:29.448Z,51.94
2022-08-17T23:08:58.324Z,52.12
2022-08-17T23:11:42.907Z,52.09
2022-08-17T23:14:31.862Z,52.02
2022-08-17T23:17:02.197Z,52.31
2022-08-17T23:19:32.058Z,52.22
2022-08-17T23:22:04.983Z,52.41
2022-08-17T23:24:38.277Z,52.36
2022-08-17T23:27:12.288Z,52.41
2022-08-17T23:29:42.447Z,52.54
2022-08-17T23:32:15.156Z,52.40
2022-08-17T23:34:45.322Z,52.20
2022-08-17T23:37:13.928Z,52.26
2022-08-17T23:39:45.636Z,52.65
2022-08-17T23:42:22.201Z,52.53
2022-08-17T23:44:51.031Z,52.80
2022-08-17T23:47:19.962Z,52.89
2022-08-17T23:49:49.093Z,52.98
2022-08-17T23:52:23.430Z,53.25
2022-08-17T23:54:53.028Z,52.99
2022-08-17T23:57:33.763Z,53.09
